sensor_id;sensor_type;location;lat;lon;timestamp;pressure;altitude;pressure_sealevel;temperature;humidity
4745;BME280;2386;42.138;24.746;2022-07-06T00:00:52;99466.81;;;25.86;57.30
4745;BME280;2386;42.138;24.746;2022-07-06T00:03:18;99468.91;;;25.89;57.03
4745;BME280;2386;42.138;24.746;2022-07-06T00:05:43;99469.41;;;25.91;58.13
4745;BME280;2386;42.138;24.746;2022-07-06T00:08:08;99465.38;;;26.01;57.66
4745;BME280;2386;42.138;24.746;2022-07-06T00:10:34;99463.84;;;26.12;58.48
4745;BME280;2386;42.138;24.746;2022-07-06T00:13:00;99456.59;;;26.19;59.91
4745;BME280;2386;42.138;24.746;2022-07-06T00:15:25;99458.47;;;26.28;59.19
4745;BME280;2386;42.138;24.746;2022-07-06T00:17:51;99454.47;;;26.16;60.81
4745;BME280;2386;42.138;24.746;2022-07-06T00:20:16;99451.16;;;26.23;61.28
4745;BME280;2386;42.138;24.746;2022-07-06T00:22:42;99456.72;;;26.23;61.38
4745;BME280;2386;42.138;24.746;2022-07-06T00:25:07;99459.03;;;26.21;63.15
4745;BME280;2386;42.138;24.746;2022-07-06T00:27:33;99458.94;;;25.88;63.33
4745;BME280;2386;42.138;24.746;2022-07-06T00:29:58;99452.28;;;25.80;63.30
4745;BME280;2386;42.138;24.746;2022-07-06T00:32:24;99444.91;;;25.46;64.23
4745;BME280;2386;42.138;24.746;2022-07-06T00:34:50;99444.13;;;25.37;65.22
4745;BME280;2386;42.138;24.746;2022-07-06T00:37:15;99431.50;;;25.19;67.28
4745;BME280;2386;42.138;24.746;2022-07-06T00:39:41;99429.84;;;25.18;67.48
4745;BME280;2386;42.138;24.746;2022-07-06T00:42:07;99418.75;;;25.18;67.66
4745;BME280;2386;42.138;24.746;2022-07-06T00:44:32;99416.78;;;25.18;67.37
4745;BME280;2386;42.138;24.746;2022-07-06T00:46:59;99413.19;;;25.18;67.45
4745;BME280;2386;42.138;24.746;2022-07-06T00:49:24;99415.78;;;25.23;67.30
4745;BME280;2386;42.138;24.746;2022-07-06T00:52:09;99413.56;;;25.08;68.44
4745;BME280;2386;42.138;24.746;2022-07-06T00:54:35;99417.81;;;25.05;69.09
4745;BME280;2386;42.138;24.746;2022-07-06T00:57:01;99409.00;;;25.03;69.15
4745;BME280;2386;42.138;24.746;2022-07-06T00:59:27;99397.75;;;25.00;69.49
4745;BME280;2386;42.138;24.746;2022-07-06T01:01:52;99398.34;;;25.14;68.70
4745;BME280;2386;42.138;24.746;2022-07-06T01:04:18;99391.75;;;25.27;69.33
4745;BME280;2386;42.138;24.746;2022-07-06T01:06:45;99383.06;;;25.29;67.64
4745;BME280;2386;42.138;24.746;2022-07-06T01:09:11;99378.63;;;25.36;66.43
4745;BME280;2386;42.138;24.746;2022-07-06T01:11:36;99377.19;;;25.30;65.46
4745;BME280;2386;42.138;24.746;2022-07-06T01:14:02;99360.63;;;25.42;64.72
4745;BME280;2386;42.138;24.746;2022-07-06T01:16:28;99359.94;;;25.45;66.00
4745;BME280;2386;42.138;24.746;2022-07-06T01:18:53;99350.66;;;25.41;64.99
4745;BME280;2386;42.138;24.746;2022-07-06T01:21:19;99348.69;;;25.42;64.29
4745;BME280;2386;42.138;24.746;2022-07-06T01:23:46;99340.78;;;25.52;64.62
4745;BME280;2386;42.138;24.746;2022-07-06T01:26:18;99341.59;;;25.53;64.81
4745;BME280;2386;42.138;24.746;2022-07-06T01:28:44;99333.88;;;25.59;64.61
4745;BME280;2386;42.138;24.746;2022-07-06T01:31:14;99328.88;;;25.52;63.80
4745;BME280;2386;42.138;24.746;2022-07-06T01:33:42;99332.47;;;25.52;64.77
4745;BME280;2386;42.138;24.746;2022-07-06T01:36:08;99321.69;;;25.51;64.42
4745;BME280;2386;42.138;24.746;2022-07-06T01:38:46;99320.34;;;25.57;65.26
4745;BME280;2386;42.138;24.746;2022-07-06T01:41:11;99309.41;;;25.52;64.41
4745;BME280;2386;42.138;24.746;2022-07-06T01:43:38;99320.00;;;25.59;64.10
4745;BME280;2386;42.138;24.746;2022-07-06T01:46:03;99308.53;;;25.60;63.72
4745;BME280;2386;42.138;24.746;2022-07-06T01:48:30;99307.72;;;25.60;64.60
4745;BME280;2386;42.138;24.746;2022-07-06T01:50:56;99300.88;;;25.57;65.50
4745;BME280;2386;42.138;24.746;2022-07-06T01:53:21;99305.44;;;25.62;64.98
4745;BME280;2386;42.138;24.746;2022-07-06T01:55:47;99305.09;;;25.63;64.66
4745;BME280;2386;42.138;24.746;2022-07-06T01:58:12;99298.59;;;25.59;65.24
4745;BME280;2386;42.138;24.746;2022-07-06T02:00:39;99300.88;;;25.57;65.83
4745;BME280;2386;42.138;24.746;2022-07-06T02:03:04;99298.78;;;25.54;65.36
4745;BME280;2386;42.138;24.746;2022-07-06T02:05:29;99291.88;;;25.60;64.85
4745;BME280;2386;42.138;24.746;2022-07-06T02:07:56;99286.84;;;25.53;65.31
4745;BME280;2386;42.138;24.746;2022-07-06T02:10:21;99286.91;;;25.45;65.99
4745;BME280;2386;42.138;24.746;2022-07-06T02:12:47;99292.00;;;25.43;66.66
4745;BME280;2386;42.138;24.746;2022-07-06T02:15:13;99282.03;;;25.42;66.69
4745;BME280;2386;42.138;24.746;2022-07-06T02:17:38;99277.22;;;25.30;67.39
4745;BME280;2386;42.138;24.746;2022-07-06T02:20:05;99284.00;;;25.41;66.13
4745;BME280;2386;42.138;24.746;2022-07-06T02:22:30;99283.53;;;25.39;66.25
4745;BME280;2386;42.138;24.746;2022-07-06T02:24:56;99271.28;;;25.40;66.07
4745;BME280;2386;42.138;24.746;2022-07-06T02:27:21;99277.50;;;25.37;66.30
4745;BME280;2386;42.138;24.746;2022-07-06T02:29:47;99278.66;;;25.36;66.65
4745;BME280;2386;42.138;24.746;2022-07-06T02:32:13;99286.50;;;25.34;68.36
4745;BME280;2386;42.138;24.746;2022-07-06T02:34:38;99285.16;;;25.40;66.39
4745;BME280;2386;42.138;24.746;2022-07-06T02:37:03;99281.75;;;25.35;66.77
4745;BME280;2386;42.138;24.746;2022-07-06T02:39:29;99289.75;;;25.36;67.69
4745;BME280;2386;42.138;24.746;2022-07-06T02:41:54;99292.19;;;25.38;67.32
4745;BME280;2386;42.138;24.746;2022-07-06T02:44:20;99295.78;;;25.38;67.77
4745;BME280;2386;42.138;24.746;2022-07-06T02:46:45;99297.75;;;25.38;67.72
4745;BME280;2386;42.138;24.746;2022-07-06T02:49:11;99299.91;;;25.32;67.91
4745;BME280;2386;42.138;24.746;2022-07-06T02:51:36;99308.44;;;25.27;68.74
4745;BME280;2386;42.138;24.746;2022-07-06T02:54:02;99306.69;;;24.84;69.07
4745;BME280;2386;42.138;24.746;2022-07-06T02:56:28;99309.78;;;24.83;69.48
4745;BME280;2386;42.138;24.746;2022-07-06T02:58:53;99311.75;;;24.82;70.37
4745;BME280;2386;42.138;24.746;2022-07-06T03:01:19;99315.78;;;24.94;69.91
4745;BME280;2386;42.138;24.746;2022-07-06T03:03:44;99317.59;;;24.98;69.94
4745;BME280;2386;42.138;24.746;2022-07-06T03:06:09;99312.38;;;24.88;70.42
4745;BME280;2386;42.138;24.746;2022-07-06T03:08:35;99316.94;;;24.93;70.81
4745;BME280;2386;42.138;24.746;2022-07-06T03:11:00;99329.22;;;24.83;70.90
4745;BME280;2386;42.138;24.746;2022-07-06T03:13:27;99318.94;;;24.83;70.10
4745;BME280;2386;42.138;24.746;2022-07-06T03:15:53;99327.25;;;24.83;70.86
4745;BME280;2386;42.138;24.746;2022-07-06T03:18:18;99320.03;;;24.91;71.10
4745;BME280;2386;42.138;24.746;2022-07-06T03:20:45;99325.91;;;24.98;70.85
4745;BME280;2386;42.138;24.746;2022-07-06T03:23:10;99334.06;;;24.95;71.36
4745;BME280;2386;42.138;24.746;2022-07-06T03:25:35;99329.34;;;24.95;70.62
4745;BME280;2386;42.138;24.746;2022-07-06T03:28:01;99331.94;;;25.00;71.44
4745;BME280;2386;42.138;24.746;2022-07-06T03:30:27;99342.91;;;24.97;70.60
4745;BME280;2386;42.138;24.746;2022-07-06T03:32:54;99340.44;;;25.04;70.01
4745;BME280;2386;42.138;24.746;2022-07-06T03:35:19;99347.47;;;25.01;71.33
4745;BME280;2386;42.138;24.746;2022-07-06T03:37:44;99340.94;;;24.97;71.60
4745;BME280;2386;42.138;24.746;2022-07-06T03:40:12;99338.94;;;25.06;69.67
4745;BME280;2386;42.138;24.746;2022-07-06T03:42:37;99334.72;;;24.92;70.49
4745;BME280;2386;42.138;24.746;2022-07-06T03:45:04;99331.81;;;24.88;71.28
4745;BME280;2386;42.138;24.746;2022-07-06T03:47:29;99343.06;;;24.92;71.18
4745;BME280;2386;42.138;24.746;2022-07-06T03:49:55;99341.75;;;24.98;70.64
4745;BME280;2386;42.138;24.746;2022-07-06T03:52:21;99349.44;;;24.92;71.24
4745;BME280;2386;42.138;24.746;2022-07-06T03:54:46;99352.06;;;24.88;71.73
4745;BME280;2386;42.138;24.746;2022-07-06T03:57:12;99354.00;;;24.97;70.66
4745;BME280;2386;42.138;24.746;2022-07-06T03:59:40;99352.53;;;24.90;71.57
4745;BME280;2386;42.138;24.746;2022-07-06T04:02:05;99341.59;;;24.94;72.77
4745;BME280;2386;42.138;24.746;2022-07-06T04:04:31;99341.44;;;24.99;74.18
4745;BME280;2386;42.138;24.746;2022-07-06T04:06:56;99338.97;;;24.98;74.78
4745;BME280;2386;42.138;24.746;2022-07-06T04:09:22;99344.06;;;24.87;76.30
4745;BME280;2386;42.138;24.746;2022-07-06T04:11:47;99348.13;;;24.89;78.08
4745;BME280;2386;42.138;24.746;2022-07-06T04:14:13;99343.38;;;24.99;78.21
4745;BME280;2386;42.138;24.746;2022-07-06T04:16:38;99347.97;;;24.86;80.69
4745;BME280;2386;42.138;24.746;2022-07-06T04:19:04;99350.72;;;24.95;81.83
4745;BME280;2386;42.138;24.746;2022-07-06T04:21:30;99350.72;;;24.95;82.83
4745;BME280;2386;42.138;24.746;2022-07-06T04:23:55;99349.09;;;24.94;83.40
4745;BME280;2386;42.138;24.746;2022-07-06T04:26:21;99349.09;;;24.94;83.84
4745;BME280;2386;42.138;24.746;2022-07-06T04:28:46;99351.38;;;24.92;84.60
4745;BME280;2386;42.138;24.746;2022-07-06T04:31:12;99350.25;;;24.93;84.82
4745;BME280;2386;42.138;24.746;2022-07-06T04:33:41;99352.19;;;24.92;85.09
4745;BME280;2386;42.138;24.746;2022-07-06T04:36:07;99350.88;;;25.07;84.83
4745;BME280;2386;42.138;24.746;2022-07-06T04:38:32;99344.59;;;25.18;83.63
4745;BME280;2386;42.138;24.746;2022-07-06T04:40:58;99351.72;;;25.28;83.02
4745;BME280;2386;42.138;24.746;2022-07-06T04:43:23;99354.94;;;25.39;82.38
4745;BME280;2386;42.138;24.746;2022-07-06T04:45:48;99352.66;;;25.62;83.10
4745;BME280;2386;42.138;24.746;2022-07-06T04:48:14;99349.03;;;25.70;81.16
4745;BME280;2386;42.138;24.746;2022-07-06T04:50:39;99339.84;;;25.78;81.79
4745;BME280;2386;42.138;24.746;2022-07-06T04:53:05;99352.66;;;25.91;80.90
4745;BME280;2386;42.138;24.746;2022-07-06T04:55:30;99347.34;;;25.98;80.39
4745;BME280;2386;42.138;24.746;2022-07-06T04:57:58;99348.38;;;25.94;79.96
4745;BME280;2386;42.138;24.746;2022-07-06T05:00:24;99356.09;;;25.88;80.69
4745;BME280;2386;42.138;24.746;2022-07-06T05:02:49;99350.75;;;25.83;81.19
4745;BME280;2386;42.138;24.746;2022-07-06T05:05:14;99355.81;;;25.81;81.77
4745;BME280;2386;42.138;24.746;2022-07-06T05:07:40;99352.16;;;25.89;84.31
4745;BME280;2386;42.138;24.746;2022-07-06T05:10:09;99356.94;;;26.01;83.09
4745;BME280;2386;42.138;24.746;2022-07-06T05:12:36;99360.13;;;26.11;82.67
4745;BME280;2386;42.138;24.746;2022-07-06T05:15:03;99357.22;;;26.08;80.58
4745;BME280;2386;42.138;24.746;2022-07-06T05:17:28;99353.22;;;26.17;81.21
4745;BME280;2386;42.138;24.746;2022-07-06T05:19:54;99365.75;;;26.24;79.28
4745;BME280;2386;42.138;24.746;2022-07-06T05:22:19;99374.78;;;26.20;79.10
4745;BME280;2386;42.138;24.746;2022-07-06T05:24:45;99379.88;;;26.18;79.35
4745;BME280;2386;42.138;24.746;2022-07-06T05:27:10;99374.09;;;26.24;79.80
4745;BME280;2386;42.138;24.746;2022-07-06T05:29:36;99388.94;;;26.28;79.36
4745;BME280;2386;42.138;24.746;2022-07-06T05:32:01;99372.59;;;26.47;80.21
4745;BME280;2386;42.138;24.746;2022-07-06T05:34:27;99374.50;;;26.55;78.56
4745;BME280;2386;42.138;24.746;2022-07-06T05:36:52;99376.34;;;26.51;78.41
4745;BME280;2386;42.138;24.746;2022-07-06T05:39:18;99378.69;;;26.61;78.21
4745;BME280;2386;42.138;24.746;2022-07-06T05:41:46;99386.56;;;26.59;77.87
4745;BME280;2386;42.138;24.746;2022-07-06T05:44:12;99388.88;;;26.57;79.24
4745;BME280;2386;42.138;24.746;2022-07-06T05:46:38;99389.13;;;26.76;79.46
4745;BME280;2386;42.138;24.746;2022-07-06T05:49:03;99392.16;;;26.83;78.37
4745;BME280;2386;42.138;24.746;2022-07-06T05:51:47;99386.59;;;26.83;77.84
4745;BME280;2386;42.138;24.746;2022-07-06T05:54:14;99385.97;;;26.99;79.07
4745;BME280;2386;42.138;24.746;2022-07-06T05:56:40;99396.56;;;26.84;75.63
4745;BME280;2386;42.138;24.746;2022-07-06T05:59:06;99397.91;;;26.99;76.33
4745;BME280;2386;42.138;24.746;2022-07-06T06:01:32;99406.63;;;26.98;75.71
4745;BME280;2386;42.138;24.746;2022-07-06T06:03:58;99400.59;;;27.08;75.97
4745;BME280;2386;42.138;24.746;2022-07-06T06:06:25;99396.78;;;27.12;75.95
4745;BME280;2386;42.138;24.746;2022-07-06T06:08:50;99400.72;;;27.11;75.30
4745;BME280;2386;42.138;24.746;2022-07-06T06:11:16;99396.66;;;27.09;75.87
4745;BME280;2386;42.138;24.746;2022-07-06T06:13:41;99404.34;;;27.24;75.66
4745;BME280;2386;42.138;24.746;2022-07-06T06:16:07;99407.94;;;27.37;75.33
4745;BME280;2386;42.138;24.746;2022-07-06T06:18:32;99413.16;;;27.38;74.53
4745;BME280;2386;42.138;24.746;2022-07-06T06:20:58;99408.53;;;27.30;75.99
4745;BME280;2386;42.138;24.746;2022-07-06T06:23:23;99409.91;;;27.12;76.21
4745;BME280;2386;42.138;24.746;2022-07-06T06:25:49;99418.94;;;27.09;75.34
4745;BME280;2386;42.138;24.746;2022-07-06T06:28:14;99414.06;;;27.06;75.82
4745;BME280;2386;42.138;24.746;2022-07-06T06:30:39;99415.72;;;27.19;76.26
4745;BME280;2386;42.138;24.746;2022-07-06T06:33:11;99422.13;;;27.44;76.31
4745;BME280;2386;42.138;24.746;2022-07-06T06:35:41;99407.09;;;27.48;75.07
4745;BME280;2386;42.138;24.746;2022-07-06T06:38:07;99406.63;;;27.59;72.44
4745;BME280;2386;42.138;24.746;2022-07-06T06:40:32;99407.72;;;27.66;72.04
4745;BME280;2386;42.138;24.746;2022-07-06T06:42:58;99407.47;;;27.71;69.75
4745;BME280;2386;42.138;24.746;2022-07-06T06:45:23;99421.97;;;27.89;68.73
4745;BME280;2386;42.138;24.746;2022-07-06T06:47:49;99407.47;;;27.84;68.41
4745;BME280;2386;42.138;24.746;2022-07-06T06:50:14;99406.66;;;27.71;68.13
4745;BME280;2386;42.138;24.746;2022-07-06T06:52:40;99410.38;;;27.75;68.42
4745;BME280;2386;42.138;24.746;2022-07-06T06:55:05;99409.22;;;27.64;69.56
4745;BME280;2386;42.138;24.746;2022-07-06T06:57:31;99407.25;;;27.64;71.36
4745;BME280;2386;42.138;24.746;2022-07-06T06:59:56;99412.47;;;27.66;69.22
4745;BME280;2386;42.138;24.746;2022-07-06T07:02:24;99405.63;;;27.63;69.63
4745;BME280;2386;42.138;24.746;2022-07-06T07:04:49;99407.00;;;27.81;69.82
4745;BME280;2386;42.138;24.746;2022-07-06T07:07:15;99406.59;;;28.07;67.62
4745;BME280;2386;42.138;24.746;2022-07-06T07:09:40;99404.34;;;28.25;67.92
4745;BME280;2386;42.138;24.746;2022-07-06T07:12:06;99401.63;;;28.41;66.43
4745;BME280;2386;42.138;24.746;2022-07-06T07:14:32;99397.47;;;28.63;65.57
4745;BME280;2386;42.138;24.746;2022-07-06T07:16:57;99396.84;;;28.69;65.65
4745;BME280;2386;42.138;24.746;2022-07-06T07:19:22;99392.94;;;28.86;63.57
4745;BME280;2386;42.138;24.746;2022-07-06T07:21:48;99394.47;;;28.99;64.48
4745;BME280;2386;42.138;24.746;2022-07-06T07:24:13;99402.78;;;28.96;62.98
4745;BME280;2386;42.138;24.746;2022-07-06T07:26:38;99392.94;;;28.86;62.42
4745;BME280;2386;42.138;24.746;2022-07-06T07:29:04;99391.03;;;29.06;64.52
4745;BME280;2386;42.138;24.746;2022-07-06T07:31:29;99400.69;;;29.24;63.76
4745;BME280;2386;42.138;24.746;2022-07-06T07:33:55;99403.75;;;29.35;60.87
4745;BME280;2386;42.138;24.746;2022-07-06T07:36:22;99397.81;;;29.36;60.27
4745;BME280;2386;42.138;24.746;2022-07-06T07:38:49;99398.97;;;29.35;60.35
4745;BME280;2386;42.138;24.746;2022-07-06T07:41:14;99395.91;;;29.40;60.58
4745;BME280;2386;42.138;24.746;2022-07-06T07:43:39;99406.13;;;29.49;61.55
4745;BME280;2386;42.138;24.746;2022-07-06T07:46:05;99402.69;;;29.55;60.69
4745;BME280;2386;42.138;24.746;2022-07-06T07:48:30;99406.19;;;29.36;59.01
4745;BME280;2386;42.138;24.746;2022-07-06T07:50:56;99400.41;;;28.98;61.82
4745;BME280;2386;42.138;24.746;2022-07-06T07:53:21;99404.91;;;29.02;61.29
4745;BME280;2386;42.138;24.746;2022-07-06T07:55:46;99399.59;;;29.13;61.34
4745;BME280;2386;42.138;24.746;2022-07-06T07:58:12;99395.66;;;29.14;60.26
4745;BME280;2386;42.138;24.746;2022-07-06T08:00:37;99397.00;;;29.20;61.05
4745;BME280;2386;42.138;24.746;2022-07-06T08:03:03;99409.06;;;29.24;60.54
4745;BME280;2386;42.138;24.746;2022-07-06T08:05:28;99389.31;;;29.01;61.25
4745;BME280;2386;42.138;24.746;2022-07-06T08:07:54;99394.47;;;29.15;61.48
4745;BME280;2386;42.138;24.746;2022-07-06T08:10:20;99383.38;;;29.19;61.55
4745;BME280;2386;42.138;24.746;2022-07-06T08:12:45;99398.00;;;29.43;62.57
4745;BME280;2386;42.138;24.746;2022-07-06T08:15:11;99399.09;;;29.55;60.59
4745;BME280;2386;42.138;24.746;2022-07-06T08:17:36;99397.91;;;29.56;60.04
4745;BME280;2386;42.138;24.746;2022-07-06T08:20:02;99401.78;;;29.67;59.61
4745;BME280;2386;42.138;24.746;2022-07-06T08:22:27;99395.47;;;29.54;59.15
4745;BME280;2386;42.138;24.746;2022-07-06T08:24:55;99394.28;;;29.39;60.11
4745;BME280;2386;42.138;24.746;2022-07-06T08:27:20;99392.31;;;29.56;60.08
4745;BME280;2386;42.138;24.746;2022-07-06T08:29:46;99391.03;;;29.69;59.95
4745;BME280;2386;42.138;24.746;2022-07-06T08:32:11;99384.00;;;29.94;59.86
4745;BME280;2386;42.138;24.746;2022-07-06T08:34:36;99385.66;;;30.15;59.83
4745;BME280;2386;42.138;24.746;2022-07-06T08:37:02;99379.63;;;30.13;57.84
4745;BME280;2386;42.138;24.746;2022-07-06T08:39:27;99386.56;;;30.19;58.16
4745;BME280;2386;42.138;24.746;2022-07-06T08:41:55;99385.91;;;29.90;57.18
4745;BME280;2386;42.138;24.746;2022-07-06T08:44:23;99384.75;;;29.75;58.26
4745;BME280;2386;42.138;24.746;2022-07-06T08:46:49;99387.19;;;29.77;57.79
4745;BME280;2386;42.138;24.746;2022-07-06T08:49:18;99392.66;;;29.70;57.35
4745;BME280;2386;42.138;24.746;2022-07-06T08:51:44;99388.19;;;29.50;58.12
4745;BME280;2386;42.138;24.746;2022-07-06T08:54:11;99390.69;;;29.39;59.73
4745;BME280;2386;42.138;24.746;2022-07-06T08:56:37;99389.88;;;29.38;59.63
4745;BME280;2386;42.138;24.746;2022-07-06T08:59:03;99386.09;;;29.31;60.64
4745;BME280;2386;42.138;24.746;2022-07-06T09:01:29;99380.31;;;29.24;59.78
4745;BME280;2386;42.138;24.746;2022-07-06T09:03:55;99381.41;;;29.19;60.64
4745;BME280;2386;42.138;24.746;2022-07-06T09:06:25;99384.66;;;29.21;60.93
4745;BME280;2386;42.138;24.746;2022-07-06T09:08:55;99384.91;;;29.16;61.91
4745;BME280;2386;42.138;24.746;2022-07-06T09:11:21;99385.28;;;29.15;62.46
4745;BME280;2386;42.138;24.746;2022-07-06T09:13:47;99396.81;;;29.13;63.21
4745;BME280;2386;42.138;24.746;2022-07-06T09:16:14;99391.59;;;29.27;64.15
4745;BME280;2386;42.138;24.746;2022-07-06T09:18:43;99392.84;;;29.30;62.80
4745;BME280;2386;42.138;24.746;2022-07-06T09:21:09;99392.22;;;29.36;63.54
4745;BME280;2386;42.138;24.746;2022-07-06T09:23:36;99394.13;;;29.32;63.45
4745;BME280;2386;42.138;24.746;2022-07-06T09:26:03;99396.03;;;29.44;65.00
4745;BME280;2386;42.138;24.746;2022-07-06T09:28:42;99393.59;;;29.42;64.66
4745;BME280;2386;42.138;24.746;2022-07-06T09:31:08;99396.84;;;29.45;63.82
4745;BME280;2386;42.138;24.746;2022-07-06T09:33:34;99396.03;;;29.44;62.90
4745;BME280;2386;42.138;24.746;2022-07-06T09:36:00;99394.50;;;29.47;63.91
4745;BME280;2386;42.138;24.746;2022-07-06T09:38:27;99389.06;;;29.54;62.73
4745;BME280;2386;42.138;24.746;2022-07-06T09:40:53;99390.13;;;29.65;64.54
4745;BME280;2386;42.138;24.746;2022-07-06T09:43:20;99381.13;;;29.56;62.63
4745;BME280;2386;42.138;24.746;2022-07-06T09:45:52;99385.56;;;29.76;61.32
4745;BME280;2386;42.138;24.746;2022-07-06T09:48:20;99386.47;;;29.80;61.20
4745;BME280;2386;42.138;24.746;2022-07-06T09:53:19;99389.72;;;29.82;61.29
4745;BME280;2386;42.138;24.746;2022-07-06T09:55:53;99374.47;;;29.80;60.59
4745;BME280;2386;42.138;24.746;2022-07-06T09:58:20;99376.41;;;29.95;62.52
4745;BME280;2386;42.138;24.746;2022-07-06T10:00:46;99374.06;;;29.97;61.92
4745;BME280;2386;42.138;24.746;2022-07-06T10:03:13;99369.53;;;30.08;60.80
4745;BME280;2386;42.138;24.746;2022-07-06T10:05:41;99368.44;;;30.13;59.18
4745;BME280;2386;42.138;24.746;2022-07-06T10:08:08;99363.34;;;30.18;58.36
4745;BME280;2386;42.138;24.746;2022-07-06T10:10:37;99361.00;;;30.20;58.06
4745;BME280;2386;42.138;24.746;2022-07-06T10:13:04;99358.28;;;30.04;58.21
4745;BME280;2386;42.138;24.746;2022-07-06T10:15:34;99365.94;;;30.07;57.53
4745;BME280;2386;42.138;24.746;2022-07-06T10:18:03;99362.78;;;29.93;56.16
4745;BME280;2386;42.138;24.746;2022-07-06T10:20:30;99354.44;;;30.13;54.83
4745;BME280;2386;42.138;24.746;2022-07-06T10:23:01;99353.63;;;30.12;53.14
4745;BME280;2386;42.138;24.746;2022-07-06T10:25:27;99358.41;;;30.12;54.00
4745;BME280;2386;42.138;24.746;2022-07-06T10:27:54;99355.09;;;30.45;52.90
4745;BME280;2386;42.138;24.746;2022-07-06T10:30:21;99349.38;;;30.80;52.45
4745;BME280;2386;42.138;24.746;2022-07-06T10:32:48;99345.50;;;30.88;51.40
4745;BME280;2386;42.138;24.746;2022-07-06T10:35:15;99342.34;;;31.12;50.49
4745;BME280;2386;42.138;24.746;2022-07-06T10:37:42;99338.78;;;30.92;50.76
4745;BME280;2386;42.138;24.746;2022-07-06T10:40:08;99333.19;;;31.15;49.53
4745;BME280;2386;42.138;24.746;2022-07-06T10:43:01;99330.63;;;31.07;49.81
4745;BME280;2386;42.138;24.746;2022-07-06T10:50:39;99328.31;;;31.12;49.51
4745;BME280;2386;42.138;24.746;2022-07-06T10:55:47;99320.84;;;31.46;48.13
4745;BME280;2386;42.138;24.746;2022-07-06T10:58:34;99326.72;;;31.64;47.37
4745;BME280;2386;42.138;24.746;2022-07-06T11:01:00;99322.09;;;31.75;45.47
4745;BME280;2386;42.138;24.746;2022-07-06T11:03:45;99326.53;;;32.10;46.52
4745;BME280;2386;42.138;24.746;2022-07-06T11:06:25;99318.81;;;32.33;47.46
4745;BME280;2386;42.138;24.746;2022-07-06T11:08:55;99317.38;;;32.46;44.52
4745;BME280;2386;42.138;24.746;2022-07-06T11:11:26;99316.53;;;32.42;43.48
4745;BME280;2386;42.138;24.746;2022-07-06T11:19:19;99308.81;;;32.36;42.83
4745;BME280;2386;42.138;24.746;2022-07-06T11:24:19;99309.97;;;32.31;41.40
4745;BME280;2386;42.138;24.746;2022-07-06T11:26:47;99304.28;;;32.24;41.40
4745;BME280;2386;42.138;24.746;2022-07-06T11:29:15;99301.78;;;32.52;40.01
4745;BME280;2386;42.138;24.746;2022-07-06T11:31:44;99303.47;;;32.60;41.04
4745;BME280;2386;42.138;24.746;2022-07-06T11:34:12;99295.28;;;32.85;42.09
4745;BME280;2386;42.138;24.746;2022-07-06T11:36:39;99297.03;;;33.04;40.52
4745;BME280;2386;42.138;24.746;2022-07-06T11:39:06;99293.94;;;33.16;40.95
4745;BME280;2386;42.138;24.746;2022-07-06T11:41:32;99297.16;;;33.18;40.92
4745;BME280;2386;42.138;24.746;2022-07-06T11:43:58;99286.34;;;33.20;40.59
4745;BME280;2386;42.138;24.746;2022-07-06T11:46:34;99293.34;;;33.41;41.73
4745;BME280;2386;42.138;24.746;2022-07-06T11:51:28;99287.00;;;33.61;40.30
4745;BME280;2386;42.138;24.746;2022-07-06T11:53:56;99287.22;;;34.01;40.99
4745;BME280;2386;42.138;24.746;2022-07-06T11:56:23;99279.34;;;34.74;36.24
4745;BME280;2386;42.138;24.746;2022-07-06T11:58:59;99271.25;;;35.50;36.95
4745;BME280;2386;42.138;24.746;2022-07-06T12:01:26;99269.38;;;36.28;33.18
4745;BME280;2386;42.138;24.746;2022-07-06T12:03:53;99269.66;;;37.40;31.84
4745;BME280;2386;42.138;24.746;2022-07-06T12:06:23;99268.50;;;38.06;30.97
4745;BME280;2386;42.138;24.746;2022-07-06T12:08:50;99274.72;;;37.94;30.45
4745;BME280;2386;42.138;24.746;2022-07-06T12:11:20;99266.44;;;37.79;32.35
4745;BME280;2386;42.138;24.746;2022-07-06T12:13:46;99270.78;;;37.88;31.24
4745;BME280;2386;42.138;24.746;2022-07-06T12:16:13;99271.78;;;37.70;33.26
4745;BME280;2386;42.138;24.746;2022-07-06T12:18:40;99264.84;;;36.96;32.81
4745;BME280;2386;42.138;24.746;2022-07-06T12:21:10;99266.13;;;36.29;34.37
4745;BME280;2386;42.138;24.746;2022-07-06T12:23:44;99270.75;;;35.77;35.09
4745;BME280;2386;42.138;24.746;2022-07-06T12:26:11;99263.59;;;35.58;34.62
4745;BME280;2386;42.138;24.746;2022-07-06T12:28:37;99255.53;;;35.49;35.60
4745;BME280;2386;42.138;24.746;2022-07-06T12:31:03;99250.75;;;36.37;37.04
4745;BME280;2386;42.138;24.746;2022-07-06T12:33:28;99254.81;;;37.70;33.22
4745;BME280;2386;42.138;24.746;2022-07-06T12:35:54;99254.88;;;37.94;30.00
4745;BME280;2386;42.138;24.746;2022-07-06T12:38:27;99247.84;;;37.41;30.72
4745;BME280;2386;42.138;24.746;2022-07-06T12:40:54;99241.69;;;37.08;34.12
4745;BME280;2386;42.138;24.746;2022-07-06T12:43:39;99244.00;;;36.76;31.85
4745;BME280;2386;42.138;24.746;2022-07-06T12:46:27;99243.34;;;36.50;34.89
4745;BME280;2386;42.138;24.746;2022-07-06T12:48:55;99240.97;;;36.45;34.50
4745;BME280;2386;42.138;24.746;2022-07-06T12:51:21;99238.47;;;36.54;33.20
4745;BME280;2386;42.138;24.746;2022-07-06T12:53:46;99230.56;;;36.35;33.06
4745;BME280;2386;42.138;24.746;2022-07-06T12:56:13;99239.47;;;36.30;33.35
4745;BME280;2386;42.138;24.746;2022-07-06T12:58:39;99227.81;;;37.59;31.78
4745;BME280;2386;42.138;24.746;2022-07-06T13:01:05;99226.41;;;39.32;30.04
4745;BME280;2386;42.138;24.746;2022-07-06T13:03:40;99234.09;;;41.12;27.23
4745;BME280;2386;42.138;24.746;2022-07-06T13:06:05;99234.56;;;41.55;26.34
4745;BME280;2386;42.138;24.746;2022-07-06T13:08:31;99231.78;;;41.23;26.76
4745;BME280;2386;42.138;24.746;2022-07-06T13:10:57;99226.16;;;41.64;26.56
4745;BME280;2386;42.138;24.746;2022-07-06T13:13:22;99230.38;;;42.65;26.08
4745;BME280;2386;42.138;24.746;2022-07-06T13:15:48;99240.38;;;43.42;24.36
4745;BME280;2386;42.138;24.746;2022-07-06T13:18:15;99227.69;;;43.43;23.94
4745;BME280;2386;42.138;24.746;2022-07-06T13:20:43;99231.28;;;43.22;23.80
4745;BME280;2386;42.138;24.746;2022-07-06T13:23:09;99227.56;;;41.85;26.14
4745;BME280;2386;42.138;24.746;2022-07-06T13:25:34;99211.09;;;40.57;28.47
4745;BME280;2386;42.138;24.746;2022-07-06T13:28:00;99219.63;;;39.26;29.23